Burlington, Ontario

2:28 PM EDT on August 03, 2015 (GMT -0400)
Aldershot | | Change Station
CLOSE
Current Station
Personal Weather Station
Location: Burlington, ONTARIO
Elevation: 300 ft
Nearby Weather Stations

Elev 300 ft 43.32 °N, 79.82 °W | Updated 6 minutes ago

Mostly Cloudy
Mostly Cloudy
83.8 °F
Feels Like 83 °F
N
6.3
Wind Variable Wind from WNW

Today is forecast to be nearly the same temperature as yesterday.

Today
High -- | Low -- °F
--% Chance of Precip.
Yesterday
High -- | Low -- °F
Precip. -- in
6:11 AM 8:38 PM
Waning Gibbous, 85% visible
Pressure 29.77 in
Visibility 15.0 miles
Clouds Scattered Clouds 4000 ft
Scattered Clouds 10000 ft
Mostly Cloudy 21000 ft
Heat Index 83 °F
Dew Point 55 °F
Humidity 37%
Rainfall 0.20 in
Snow Depth Not available.
UV 6 out of 12
Pollen Not available.
Air Quality Not available.
Flu Activity Not available.
METAR CYHM 031800Z 27012KT 15SM SCT040 SCT100 BKN210 25/15 A2977 RMK CU3AC1CI1 SLP079 DENSITY ALT 2200FT

More Conditions Fewer Conditions

Pressure 29.77 in
Visibility 15.0 miles
Clouds Scattered Clouds 4000 ft
Scattered Clouds 10000 ft
Mostly Cloudy 21000 ft
Heat Index 83 °F
Dew Point 55 °F
Humidity 37%
Rainfall 0.20 in
Snow Depth Not available.
UV 6 out of 12
Pollen Not available.
Air Quality Not available.
Flu Activity Not available.
METAR CYHM 031800Z 27012KT 15SM SCT040 SCT100 BKN210 25/15 A2977 RMK CU3AC1CI1 SLP079 DENSITY ALT 2200FT

More Conditions Fewer Conditions

10-Day Weather Forecast

×

Almanac

Astronomy

Aug. 03, 2015 Rise Set
Actual Time
Civil Twilight
Nautical Twilight
Astronomical Twilight
Moon
Length of Visible Light
Length of Day
Tomorrow will be .
, % of the Moon is Illuminated

Today's Extremes

Country Highs Country Lows

Community

WunderPhotos

Upload Photos

1,843,697 photos uploaded!

WunderBlogs® & News

Nearby

Air Quality

  Air Quality AQ Index Pollutant
Not available.

Snow Depth

Station Depth Elevation

Earthquake Activity

City Distance Mag. Time & Date
Minimum magnitude displayed is 2.5.

Coastal Water Temperatures

Place Temperature

Stations

Nearby Weather Stations

Station Location Temp. Windchill Dew Point Humidity Wind Precip. Elev Updated Type